Time;durP1;ratioP1;P1;durP2;ratioP2;P2;SDS_P1;SDS_P2;PMS_P1;PMS_P2;Temp;Humidity;BMP_temperature;BMP_pressure;BME280_temperature;BME280_humidity;BME280_pressure;Samples;Min_cycle;Max_cycle;Signal;HPM_P1;HPM_P2
2021/01/17 00:00:18;;;;;;;37.10;21.17;;;1.40;99.90;;;-1.10;100.00;99256.34;4965908;28;20229;-76
2021/01/17 00:03:04;;;;;;;42.40;24.73;;;1.30;99.90;;;-1.09;100.00;99249.59;4969923;28;20217;-77
2021/01/17 00:05:50;;;;;;;41.93;22.37;;;1.40;99.90;;;-1.08;100.00;99251.25;4966774;28;20205;-77
2021/01/17 00:08:34;;;;;;;46.53;24.23;;;1.40;99.90;;;-1.08;100.00;99252.13;4970018;28;20568;-77
2021/01/17 00:11:20;;;;;;;44.80;24.53;;;1.40;99.90;;;-1.08;100.00;99249.59;4964244;28;20237;-76
2021/01/17 00:14:06;;;;;;;34.97;18.50;;;1.30;99.90;;;-1.08;100.00;99247.06;4962528;28;20777;-77
2021/01/17 00:16:51;;;;;;;43.37;24.93;;;1.40;99.90;;;-1.08;100.00;99244.53;4966123;28;20217;-77
2021/01/17 00:19:36;;;;;;;37.27;20.17;;;1.40;99.90;;;-1.08;100.00;99238.56;4963328;28;20680;-77
2021/01/17 00:22:22;;;;;;;45.57;23.73;;;1.30;99.90;;;-1.07;100.00;99243.66;4975237;28;20213;-76
2021/01/17 00:25:10;;;;;;;44.47;23.83;;;1.40;99.90;;;-1.03;100.00;99238.56;4970012;28;20214;-77
2021/01/17 00:27:56;;;;;;;39.37;20.73;;;1.30;99.90;;;-1.04;100.00;99241.97;4966203;28;20723;-76
2021/01/17 00:30:42;;;;;;;44.30;25.60;;;1.30;99.90;;;-1.03;100.00;99243.63;4959118;28;20234;-77
2021/01/17 00:33:27;;;;;;;40.77;23.93;;;1.40;99.90;;;-1.02;100.00;99235.19;4971631;28;20220;-77
2021/01/17 00:36:12;;;;;;;42.23;21.57;;;1.40;99.90;;;-1.02;100.00;99233.47;4966817;28;20240;-76
2021/01/17 00:38:57;;;;;;;45.40;23.70;;;1.40;99.90;;;-1.00;100.00;99236.88;4966886;28;20225;-77
2021/01/17 00:41:42;;;;;;;43.73;25.37;;;1.40;99.90;;;-1.01;100.00;99232.63;4972612;28;20271;-76
2021/01/17 00:44:27;;;;;;;45.17;22.93;;;1.40;99.90;;;-1.01;100.00;99231.81;4966944;28;20213;-77
2021/01/17 00:47:14;;;;;;;45.97;26.63;;;1.40;99.90;;;-1.03;100.00;99230.94;4965496;28;20221;-76
2021/01/17 00:49:59;;;;;;;44.07;24.20;;;1.40;99.90;;;-1.03;100.00;99228.41;4966473;28;20421;-76
2021/01/17 00:52:45;;;;;;;45.33;24.37;;;1.40;99.90;;;-1.01;100.00;99231.81;4968754;28;20205;-76
2021/01/17 00:55:30;;;;;;;41.03;23.03;;;1.40;99.90;;;-1.01;100.00;99222.47;4975329;28;20699;-77
2021/01/17 00:58:15;;;;;;;43.00;24.33;;;1.40;99.90;;;-1.00;100.00;99228.41;4973924;28;20242;-77
2021/01/17 01:01:00;;;;;;;30.80;16.40;;;1.40;99.90;;;-0.99;100.00;99220.81;4962286;28;20221;-76
2021/01/17 01:03:46;;;;;;;45.87;24.23;;;1.40;99.90;;;-0.96;100.00;99219.91;4973163;28;20221;-77
2021/01/17 01:06:31;;;;;;;42.53;22.37;;;1.40;99.90;;;-0.96;100.00;99217.38;4967313;28;20241;-75
2021/01/17 01:09:18;;;;;;;44.70;22.40;;;;;;;-0.98;100.00;99217.38;4968914;28;20273;-76
2021/01/17 01:12:04;;;;;;;41.73;23.00;;;0.80;99.90;;;-0.96;100.00;99222.47;4965939;28;20220;-76
2021/01/17 01:14:49;;;;;;;40.30;22.27;;;1.40;99.90;;;-0.96;100.00;99207.22;4963660;28;20202;-76
2021/01/17 01:17:35;;;;;;;41.43;21.40;;;1.40;99.90;;;-0.95;100.00;99214.84;4964680;28;20241;-76
2021/01/17 01:20:21;;;;;;;47.40;27.07;;;1.50;99.90;;;-0.92;100.00;99211.44;4969774;28;20230;-77
2021/01/17 01:23:06;;;;;;;45.73;25.43;;;1.40;99.90;;;-0.96;100.00;99215.72;4963509;28;20233;-77
2021/01/17 01:25:51;;;;;;;49.43;25.37;;;1.40;99.90;;;-0.94;100.00;99225.84;4963095;28;20226;-77
2021/01/17 01:28:37;;;;;;;46.13;25.13;;;1.40;99.90;;;-0.94;100.00;99213.16;4969801;28;20289;-76
2021/01/17 01:31:25;;;;;;;39.43;21.90;;;1.40;99.90;;;-0.95;100.00;99222.44;4963407;28;20798;-77
2021/01/17 01:34:10;;;;;;;40.63;22.63;;;1.40;99.90;;;-0.93;100.00;99214.81;4967948;28;20206;-78
2021/01/17 01:36:56;;;;;;;43.20;22.87;;;1.40;99.90;;;-0.94;100.00;99216.53;4968695;28;20207;-77
2021/01/17 01:39:41;;;;;;;48.07;23.00;;;1.50;99.90;;;-0.94;100.00;99208.91;4971038;28;20206;-76
2021/01/17 01:42:27;;;;;;;42.47;23.03;;;1.40;99.90;;;-0.93;100.00;99214.81;4963223;28;20233;-77
2021/01/17 01:45:12;;;;;;;46.67;25.17;;;1.50;99.90;;;-0.91;100.00;99215.69;4972045;28;20218;-77
2021/01/17 01:47:58;;;;;;;37.80;17.13;;;1.70;99.90;;;-0.91;100.00;99213.97;4973740;28;20237;-76
2021/01/17 01:50:43;;;;;;;42.27;22.50;;;1.40;99.90;;;-0.91;100.00;99208.91;4977326;28;20237;-78
2021/01/17 01:53:30;;;;;;;44.67;23.43;;;1.50;99.90;;;-0.89;100.00;99212.28;4969227;28;20206;-76
2021/01/17 01:56:15;;;;;;;49.87;24.77;;;1.40;99.90;;;-0.87;100.00;99214.81;4961678;28;20205;-76
2021/01/17 01:59:04;;;;;;;43.73;24.47;;;1.40;99.90;;;-0.85;100.00;99215.63;4975507;28;20245;-76
2021/01/17 02:01:49;;;;;;;48.23;23.53;;;1.40;99.90;;;-0.86;100.00;99206.34;4971994;28;20293;-76
2021/01/17 02:04:36;;;;;;;36.07;16.87;;;1.40;99.90;;;-0.88;100.00;99208.03;4961070;28;20214;-78
2021/01/17 02:08:05;;;;;;;50.60;26.33;;;1.40;99.90;;;-0.86;100.00;99200.41;4966168;28;20210;-78
2021/01/17 02:10:51;;;;;;;53.87;24.53;;;1.50;99.90;;;-0.89;100.00;99199.59;4968191;28;20232;-76
2021/01/17 02:13:40;;;;;;;50.37;24.27;;;1.50;99.90;;;-0.87;100.00;99194.50;4965595;28;20230;-77
2021/01/17 02:16:28;;;;;;;52.30;23.57;;;1.40;99.90;;;-0.86;100.00;99192.81;4967421;28;20217;-76
2021/01/17 02:19:19;;;;;;;58.23;28.63;;;1.40;99.90;;;-0.86;100.00;99180.94;4975908;28;20318;-76
2021/01/17 02:22:06;;;;;;;48.50;24.63;;;1.40;99.90;;;-0.85;100.00;99184.34;4958184;28;20412;-76
2021/01/17 02:25:01;;;;;;;52.60;25.50;;;1.60;99.90;;;-0.87;100.00;99184.34;4973381;28;20575;-76
2021/01/17 02:27:49;;;;;;;57.70;24.93;;;1.40;99.90;;;-0.85;100.00;99179.28;4960768;28;20206;-76
2021/01/17 02:30:39;;;;;;;50.67;23.87;;;1.50;99.90;;;-0.83;100.00;99180.09;4964322;28;20490;-76
2021/01/17 02:33:29;;;;;;;50.07;27.67;;;1.60;99.90;;;-0.83;100.00;99180.94;4967158;28;20291;-76
2021/01/17 02:36:48;;;;;;;49.13;25.10;;;1.60;99.90;;;-0.85;100.00;99175.03;4959600;28;20286;-77
2021/01/17 02:39:52;;;;;;;57.57;26.53;;;1.40;99.90;;;-0.85;100.00;99185.19;4964961;28;20205;-77
2021/01/17 02:42:39;;;;;;;52.47;24.23;;;1.40;99.90;;;-0.84;100.00;99178.41;4965861;28;20264;-77
2021/01/17 02:45:24;;;;;;;55.03;27.90;;;1.50;99.90;;;-0.85;100.00;99180.09;4959020;28;20206;-75
2021/01/17 02:48:09;;;;;;;65.57;26.90;;;1.40;99.90;;;-0.84;100.00;99173.31;4959645;28;20213;-76
2021/01/17 02:50:54;;;;;;;41.77;20.03;;;1.40;99.90;;;-0.84;100.00;99168.25;4961882;28;20254;-76
2021/01/17 02:53:45;;;;;;;52.87;25.63;;;1.50;99.90;;;-0.83;100.00;99173.31;4971090;28;21875;-76
2021/01/17 02:56:40;;;;;;;47.07;23.07;;;1.50;99.90;;;-0.82;100.00;99172.47;4970399;28;20254;-76
2021/01/17 02:59:34;;;;;;;52.27;25.30;;;1.40;99.90;;;-0.81;100.00;99158.94;4970321;28;20210;-75
2021/01/17 03:02:22;;;;;;;46.33;22.17;;;1.40;99.90;;;-0.81;100.00;99156.41;4953379;28;20242;-77
2021/01/17 03:05:12;;;;;;;59.03;25.70;;;1.50;99.90;;;-0.82;100.00;99149.63;4951027;28;20654;-75
2021/01/17 03:07:57;;;;;;;48.73;25.13;;;1.50;99.90;;;-0.81;100.00;99148.78;4967611;28;20253;-75
2021/01/17 03:10:42;;;;;;;54.50;28.93;;;1.50;99.90;;;-0.81;100.00;99150.47;4974553;28;20249;-77
2021/01/17 03:13:29;;;;;;;51.40;26.60;;;1.50;99.90;;;-0.82;100.00;99149.63;4970665;28;20290;-76
2021/01/17 03:16:15;;;;;;;58.57;30.10;;;1.30;99.90;;;-0.80;100.00;99149.63;4959824;28;20273;-75
2021/01/17 03:19:01;;;;;;;51.70;23.77;;;1.50;99.90;;;-0.82;100.00;99154.69;4962822;28;20732;-76
2021/01/17 03:21:46;;;;;;;45.77;19.80;;;1.50;99.90;;;-0.79;100.00;99158.94;4965568;28;20230;-75
2021/01/17 03:24:31;;;;;;;44.20;20.80;;;1.30;99.90;;;-0.80;100.00;99162.31;4966158;28;20210;-76
2021/01/17 03:27:16;;;;;;;52.70;23.33;;;1.40;99.90;;;-0.79;100.00;99169.06;4962853;28;20206;-76
2021/01/17 03:30:02;;;;;;;51.90;24.43;;;1.40;99.90;;;-0.79;100.00;99169.91;4956580;28;20229;-75
2021/01/17 03:32:48;;;;;;;49.10;22.77;;;1.60;99.90;;;-0.79;100.00;99166.53;4960433;28;20221;-76
2021/01/17 03:35:33;;;;;;;45.67;20.90;;;1.40;99.90;;;-0.78;100.00;99168.22;4964901;28;20207;-74
2021/01/17 03:38:18;;;;;;;53.00;24.13;;;1.00;99.90;;;-0.78;100.00;99169.06;4966382;28;20234;-76
2021/01/17 03:41:03;;;;;;;39.83;19.27;;;1.40;99.90;;;-0.77;100.00;99170.75;4960819;28;20226;-76
2021/01/17 03:43:48;;;;;;;48.63;23.63;;;1.40;99.90;;;-0.77;100.00;99164.81;4970741;28;20555;-76
2021/01/17 03:46:36;;;;;;;54.03;24.10;;;1.40;99.90;;;-0.77;100.00;99155.53;4966053;28;20206;-76
2021/01/17 03:49:21;;;;;;;51.37;22.47;;;1.40;99.90;;;-0.78;100.00;99158.91;4958807;28;20213;-75
2021/01/17 03:52:08;;;;;;;47.43;23.67;;;1.40;99.90;;;-0.78;100.00;99136.06;4974618;28;20268;-77
2021/01/17 03:54:52;;;;;;;57.57;26.00;;;1.40;99.90;;;-0.76;100.00;99123.34;4973578;28;20208;-77
2021/01/17 03:57:38;;;;;;;43.70;20.73;;;1.40;99.90;;;-0.76;100.00;99125.91;4967232;28;20213;-76
2021/01/17 04:00:23;;;;;;;50.10;21.97;;;1.40;99.90;;;-0.76;100.00;99121.66;4971651;28;20636;-76
2021/01/17 04:03:08;;;;;;;48.30;24.40;;;1.50;99.90;;;-0.75;100.00;99120.81;4974048;28;20233;-76
2021/01/17 04:05:54;;;;;;;43.40;20.43;;;1.50;99.90;;;-0.74;100.00;99119.97;4970119;28;20341;-74
2021/01/17 04:08:39;;;;;;;37.47;19.93;;;1.50;99.90;;;-0.73;100.00;99123.34;4961577;28;20229;-76
2021/01/17 04:11:25;;;;;;;48.47;21.83;;;1.50;99.90;;;-0.74;100.00;99131.78;4971180;28;20280;-75
2021/01/17 04:14:10;;;;;;;38.03;18.77;;;2.40;99.90;;;-0.74;100.00;99135.19;4970006;28;20622;-75
2021/01/17 04:16:55;;;;;;;36.07;16.57;;;;;;;-0.72;100.00;99141.09;4971938;28;20277;-75
2021/01/17 04:19:41;;;;;;;43.53;21.57;;;;;;;-0.72;100.00;99138.56;4968522;28;20245;-75
2021/01/17 04:22:26;;;;;;;43.90;19.60;;;1.50;99.90;;;-0.71;100.00;99140.25;4967975;28;20214;-76
2021/01/17 04:25:12;;;;;;;45.77;22.57;;;1.50;99.90;;;-0.67;100.00;99132.59;4964900;28;20257;-75
2021/01/17 04:27:59;;;;;;;38.07;19.50;;;1.50;99.90;;;-0.68;100.00;99123.28;4965223;28;20234;-74
2021/01/17 04:30:45;;;;;;;41.00;17.07;;;2.10;99.90;;;-0.67;100.00;99132.59;4961074;28;20241;-75
2021/01/17 04:33:30;;;;;;;36.23;17.13;;;1.40;99.90;;;-0.67;100.00;99158.81;4969598;28;20321;-75
2021/01/17 04:36:16;;;;;;;39.13;19.03;;;;;;;-0.64;100.00;99207.06;4961240;28;20208;-75
2021/01/17 04:39:03;;;;;;;40.47;18.07;;;1.50;99.90;;;-0.65;100.00;99225.69;4961688;28;20698;-75
2021/01/17 04:41:55;;;;;;;36.53;16.97;;;1.40;99.90;;;-0.64;100.00;99241.75;4958971;28;20230;-76
2021/01/17 04:44:50;;;;;;;38.03;17.77;;;1.40;99.90;;;-0.65;100.00;99235.00;4966501;28;20198;-75
2021/01/17 04:47:37;;;;;;;40.30;18.77;;;1.50;99.90;;;-0.66;100.00;99239.25;4963961;28;20622;-74
2021/01/17 04:50:23;;;;;;;40.87;22.93;;;;;;;-0.64;100.00;99244.31;4967557;28;20292;-75
2021/01/17 04:53:10;;;;;;;33.20;17.07;;;;;;;-0.67;100.00;99246.88;4963784;28;20198;-75
2021/01/17 04:56:21;;;;;;;37.33;16.10;;;1.30;99.90;;;-0.66;100.00;99249.41;4971289;28;20252;-76
2021/01/17 04:59:12;;;;;;;35.40;17.83;;;1.50;99.90;;;-0.64;100.00;99265.44;4968839;28;20703;-74
2021/01/17 05:02:24;;;;;;;35.83;16.77;;;1.50;99.90;;;-0.63;100.00;99253.63;4967994;28;20261;-74
2021/01/17 05:05:22;;;;;;;34.57;17.73;;;1.50;99.90;;;-0.63;100.00;99258.69;4964062;28;20205;-76
2021/01/17 05:08:32;;;;;;;41.67;20.27;;;1.40;99.90;;;-0.62;100.00;99265.44;4970581;28;20794;-75
2021/01/17 05:11:33;;;;;;;37.40;17.40;;;1.50;99.90;;;-0.60;100.00;99269.66;4959544;28;20739;-74
2021/01/17 05:14:35;;;;;;;31.97;15.90;;;1.50;99.90;;;-0.60;100.00;99267.13;4961383;28;20279;-75
2021/01/17 05:17:21;;;;;;;28.57;13.67;;;1.40;99.90;;;-0.61;100.00;99264.59;4970996;28;20225;-76
2021/01/17 05:20:09;;;;;;;41.10;18.90;;;1.50;99.90;;;-0.62;100.00;99271.38;4971197;28;20225;-76
2021/01/17 05:22:58;;;;;;;38.27;19.03;;;1.40;99.90;;;-0.61;100.00;99272.22;4973342;28;20260;-74
2021/01/17 05:25:44;;;;;;;35.23;16.47;;;2.60;99.90;;;-0.62;100.00;99273.06;4976864;28;20211;-75
2021/01/17 05:28:32;;;;;;;37.00;17.37;;;1.40;99.90;;;-0.60;100.00;99268.84;4970032;28;20254;-75
2021/01/17 05:31:18;;;;;;;37.80;17.77;;;1.40;99.90;;;-0.57;100.00;99268.81;4977305;28;20237;-75
2021/01/17 05:34:03;;;;;;;37.97;17.70;;;1.50;99.90;;;-0.55;100.00;99223.94;4972666;28;20254;-75
2021/01/17 05:37:03;;;;;;;38.67;18.53;;;1.50;99.90;;;-0.58;100.00;99188.41;4971662;28;20214;-76
2021/01/17 05:39:59;;;;;;;42.53;19.30;;;1.50;99.90;;;-0.55;100.00;99185.84;4965811;28;20285;-75
2021/01/17 05:42:46;;;;;;;37.40;16.93;;;1.50;99.90;;;-0.54;100.00;99187.53;4974339;28;20704;-76
2021/01/17 05:45:31;;;;;;;35.67;18.17;;;2.30;99.90;;;-0.52;100.00;99180.72;4976848;28;20217;-76
2021/01/17 05:48:17;;;;;;;34.87;15.77;;;1.50;99.90;;;-0.46;100.00;99175.59;4973063;28;20205;-76
2021/01/17 05:51:02;;;;;;;35.20;15.97;;;;;;;-0.43;100.00;99177.28;4972164;28;20228;-75
2021/01/17 05:53:47;;;;;;;30.77;14.87;;;1.50;99.90;;;-0.42;100.00;99176.44;4969613;28;20214;-75
2021/01/17 05:56:37;;;;;;;39.67;18.10;;;1.50;99.90;;;-0.42;100.00;99184.88;4972028;28;20217;-76
2021/01/17 05:59:37;;;;;;;33.73;16.10;;;1.50;99.90;;;-0.39;100.00;99179.78;4973688;28;20245;-76
2021/01/17 06:02:24;;;;;;;32.13;15.37;;;1.50;99.90;;;-0.38;100.00;99176.41;4961167;28;20279;-76
2021/01/17 06:05:11;;;;;;;41.10;17.13;;;1.50;99.90;;;-0.36;100.00;99173.84;4966623;28;20209;-76
2021/01/17 06:07:59;;;;;;;30.70;13.07;;;1.50;99.90;;;-0.34;100.00;99171.28;4972836;28;20281;-76
2021/01/17 06:10:47;;;;;;;34.87;16.77;;;1.50;99.90;;;-0.32;100.00;99170.44;4969741;28;20261;-75
2021/01/17 06:13:32;;;;;;;31.17;15.43;;;;;;;-0.31;100.00;99179.75;4967659;28;20233;-75
2021/01/17 06:16:32;;;;;;;34.77;16.70;;;1.50;99.90;;;-0.29;100.00;99194.97;4959830;28;20259;-77
2021/01/17 06:19:30;;;;;;;26.40;11.57;;;1.50;99.90;;;-0.27;100.00;99198.34;4966341;28;20206;-77
2021/01/17 06:22:16;;;;;;;36.33;16.63;;;;;;;-0.25;100.00;99199.16;4967904;28;20700;-76
2021/01/17 06:25:04;;;;;;;37.17;18.33;;;1.50;99.90;;;-0.23;100.00;99205.09;4960288;28;20210;-76
2021/01/17 06:27:49;;;;;;;35.60;15.57;;;1.50;99.90;;;-0.19;100.00;99206.75;4961366;28;20322;-75
2021/01/17 06:30:35;;;;;;;36.40;17.43;;;;;;;-0.18;100.00;99210.97;4970271;28;20308;-75
2021/01/17 06:33:22;;;;;;;37.87;16.97;;;1.50;99.90;;;-0.16;100.00;99209.28;4960867;28;20285;-76
2021/01/17 06:36:14;;;;;;;37.30;16.33;;;1.50;99.90;;;-0.13;100.00;99224.50;4946852;28;20575;-75
2021/01/17 06:38:59;;;;;;;34.87;17.50;;;1.60;99.90;;;-0.13;100.00;99223.63;4954671;28;20683;-76
2021/01/17 06:41:44;;;;;;;33.57;14.13;;;1.60;99.90;;;-0.15;100.00;99220.25;4963613;28;20592;-75
2021/01/17 06:44:32;;;;;;;43.50;19.07;;;1.60;99.90;;;-0.12;100.00;99233.78;4959317;28;20349;-75
2021/01/17 06:47:20;;;;;;;33.20;16.40;;;1.60;99.90;;;-0.12;100.00;99233.78;4957876;28;20245;-76
2021/01/17 06:50:06;;;;;;;33.37;15.83;;;1.50;99.90;;;-0.12;100.00;99230.41;4965985;28;20292;-75
2021/01/17 06:52:55;;;;;;;36.97;17.67;;;1.60;99.90;;;-0.10;100.00;99223.63;4963209;28;20220;-76
2021/01/17 06:55:40;;;;;;;38.33;17.67;;;1.60;99.90;;;-0.11;100.00;99237.19;4964548;28;20226;-75
2021/01/17 06:58:27;;;;;;;37.63;17.70;;;1.60;99.90;;;-0.10;100.00;99239.72;4961946;28;20286;-75
2021/01/17 07:01:14;;;;;;;39.90;19.23;;;1.50;99.90;;;-0.09;100.00;99243.09;4959091;28;20237;-75
2021/01/17 07:04:41;;;;;;;43.97;19.17;;;1.70;99.90;;;-0.03;100.00;99245.56;4963438;28;20214;-75
2021/01/17 07:07:50;;;;;;;38.23;17.27;;;1.60;99.90;;;-0.03;100.00;99243.91;4931535;28;20237;-75
2021/01/17 07:10:41;;;;;;;46.50;20.07;;;1.90;99.90;;;-0.01;100.00;99254.06;4962542;28;20221;-75
2021/01/17 07:13:35;;;;;;;46.33;20.70;;;1.60;99.90;;;-0.01;100.00;99248.97;4968065;28;20788;-75
2021/01/17 07:16:32;;;;;;;42.37;18.67;;;1.60;99.90;;;-0.02;100.00;99248.09;4965515;28;20573;-76
2021/01/17 07:19:21;;;;;;;43.53;18.57;;;1.60;99.90;;;0.01;100.00;99254.03;4965544;28;20679;-75
2021/01/17 07:22:06;;;;;;;47.37;19.07;;;;;;;0.01;100.00;99254.03;4952088;28;20341;-76
2021/01/17 07:24:55;;;;;;;46.57;18.57;;;1.60;99.90;;;0.03;100.00;99260.81;4957231;28;20245;-75
2021/01/17 07:28:06;;;;;;;49.07;19.17;;;1.60;99.90;;;0.05;100.00;99259.06;4967875;28;20213;-75
2021/01/17 07:31:03;;;;;;;41.30;20.00;;;1.60;99.90;;;0.09;100.00;99268.38;4957285;28;20242;-76
2021/01/17 07:33:53;;;;;;;68.20;22.80;;;1.60;99.90;;;0.09;100.00;99252.25;4957929;28;20214;-76
2021/01/17 07:36:44;;;;;;;38.20;16.63;;;1.60;99.90;;;0.07;100.00;99239.56;4963997;28;20202;-76
2021/01/17 07:39:33;;;;;;;66.97;24.40;;;1.70;99.90;;;0.08;100.00;99243.78;4955646;28;20214;-76
2021/01/17 07:42:24;;;;;;;58.97;20.37;;;1.70;99.90;;;0.07;100.00;99239.56;4960638;28;20210;-76
2021/01/17 07:45:19;;;;;;;61.50;23.37;;;1.70;99.90;;;0.09;100.00;99245.50;4956271;28;20262;-75
2021/01/17 07:48:10;;;;;;;54.33;21.13;;;1.70;99.90;;;0.11;100.00;99245.47;4963809;28;20295;-75
2021/01/17 07:50:58;;;;;;;56.53;23.43;;;1.80;99.90;;;0.12;100.00;99234.47;4965398;28;20245;-75
2021/01/17 07:53:57;;;;;;;63.90;24.43;;;1.70;99.90;;;0.17;100.00;99238.63;4959926;28;20202;-75
2021/01/17 07:56:44;;;;;;;75.63;25.80;;;2.30;99.90;;;0.24;100.00;99236.88;4959557;28;20612;-75
2021/01/17 07:59:28;;;;;;;73.00;27.73;;;1.70;99.90;;;0.28;100.00;99223.28;4956177;28;20213;-75
2021/01/17 08:02:25;;;;;;;77.77;27.33;;;1.70;99.90;;;0.32;100.00;99224.91;4968907;28;20642;-75
2021/01/17 08:05:10;;;;;;;73.93;26.57;;;1.70;99.90;;;0.34;100.00;99220.69;4963338;28;20214;-75
2021/01/17 08:08:00;;;;;;;77.73;27.87;;;1.70;99.90;;;0.39;100.00;99227.44;4959387;28;20209;-75
2021/01/17 08:10:46;;;;;;;76.43;28.00;;;1.70;99.90;;;0.42;100.00;99229.94;4966296;28;20406;-75
2021/01/17 08:13:32;;;;;;;86.07;28.90;;;1.70;99.90;;;0.45;100.00;99224.81;4957983;28;20726;-75
2021/01/17 08:16:17;;;;;;;82.27;27.47;;;1.80;99.90;;;0.49;100.00;99218.84;4957722;28;20287;-75
2021/01/17 08:19:10;;;;;;;92.77;31.00;;;1.80;99.90;;;0.55;100.00;99205.19;4952435;28;20257;-75
2021/01/17 08:21:55;;;;;;;96.50;31.07;;;1.80;99.90;;;0.59;100.00;99214.47;4955282;28;20696;-75
2021/01/17 08:24:40;;;;;;;95.53;31.30;;;1.80;99.90;;;0.62;100.00;99210.22;4963320;28;20824;-75
2021/01/17 08:27:30;;;;;;;102.60;30.63;;;3.10;99.90;;;0.67;100.00;99202.53;4961052;28;20265;-75
2021/01/17 08:30:24;;;;;;;97.33;32.47;;;1.80;99.90;;;0.72;100.00;99210.09;4961339;28;20284;-75
2021/01/17 08:33:14;;;;;;;94.87;30.00;;;1.90;99.90;;;0.77;100.00;99205.78;4948220;28;20270;-75
2021/01/17 08:36:00;;;;;;;105.77;31.27;;;1.90;99.90;;;0.78;100.00;99205.78;4962724;28;20257;-75
2021/01/17 08:38:46;;;;;;;106.10;32.47;;;;;;;0.82;100.00;99207.44;4966281;28;20209;-75
2021/01/17 08:41:31;;;;;;;106.90;32.77;;;;;;;0.87;100.00;99215.00;4962902;28;20233;-75
2021/01/17 08:44:17;;;;;;;97.53;32.23;;;;;;;0.93;100.00;99202.22;4958821;28;20205;-76
2021/01/17 08:47:21;;;;;;;104.13;33.33;;;1.90;99.90;;;1.00;100.00;99206.34;4962926;28;20209;-75
2021/01/17 08:50:07;;;;;;;116.90;34.00;;;;;;;1.05;100.00;99209.69;4964673;28;20635;-75
2021/01/17 08:53:06;;;;;;;124.60;32.20;;;2.00;99.90;;;1.11;100.00;99210.47;4960632;28;20338;-75
2021/01/17 08:55:54;;;;;;;112.67;32.63;;;2.00;99.90;;;1.15;100.00;99207.03;4963749;28;20281;-76
2021/01/17 08:58:45;;;;;;;126.20;35.30;;;2.00;99.90;;;1.20;100.00;99207.81;4961873;28;20209;-76
2021/01/17 09:01:31;;;;;;;114.63;35.13;;;2.40;99.90;;;1.29;100.00;99202.59;4966042;28;20739;-75
2021/01/17 09:04:25;;;;;;;114.00;34.00;;;2.00;99.90;;;1.39;100.00;99250.00;4964855;28;20213;-74
2021/01/17 09:07:35;;;;;;;123.10;34.80;;;2.00;99.90;;;1.41;100.00;99249.97;4956860;28;20206;-76
2021/01/17 09:10:21;;;;;;;131.03;37.20;;;2.10;99.90;;;1.43;100.00;99244.84;4961985;28;20312;-77
2021/01/17 09:13:06;;;;;;;131.33;37.73;;;2.70;99.90;;;1.53;100.00;99241.31;4968464;28;20771;-75
2021/01/17 09:15:59;;;;;;;145.77;41.80;;;2.00;99.90;;;1.53;100.00;99246.41;4962021;28;20220;-77
2021/01/17 09:18:44;;;;;;;147.43;42.57;;;2.10;99.90;;;1.55;100.00;99239.56;4963358;28;20201;-77
2021/01/17 09:21:31;;;;;;;148.83;39.20;;;2.10;99.90;;;1.63;100.00;99250.50;4965994;28;20221;-76
2021/01/17 09:24:20;;;;;;;143.07;38.67;;;2.20;99.90;;;1.72;100.00;99250.38;4966079;28;20888;-76
2021/01/17 09:27:08;;;;;;;161.57;42.10;;;1.50;99.90;;;1.75;100.00;99257.97;4965027;28;20214;-76
2021/01/17 09:29:54;;;;;;;151.97;43.73;;;2.20;99.90;;;1.82;100.00;99464.41;4968389;28;20727;-76
2021/01/17 09:32:40;;;;;;;157.47;42.80;;;;;;;1.87;100.00;99470.28;4966167;28;20777;-76
2021/01/17 09:35:26;;;;;;;150.47;42.10;;;2.30;99.90;;;1.92;100.00;99463.44;4961095;28;20287;-76
2021/01/17 09:38:14;;;;;;;174.23;40.70;;;2.80;99.90;;;1.97;100.00;99461.66;4960298;28;20225;-76
2021/01/17 09:40:59;;;;;;;166.50;43.20;;;;;;;2.10;100.00;99463.19;4962856;28;20333;-75
2021/01/17 09:43:45;;;;;;;160.97;43.67;;;2.40;99.90;;;2.35;100.00;99457.75;4962974;28;20257;-76
2021/01/17 09:46:34;;;;;;;172.20;45.20;;;2.40;99.90;;;2.55;100.00;99462.56;4961818;28;20213;-76
2021/01/17 09:49:28;;;;;;;183.07;45.23;;;2.50;99.90;;;2.84;100.00;99483.44;4962206;28;20232;-76
2021/01/17 09:52:15;;;;;;;180.13;46.87;;;2.50;99.90;;;2.75;100.00;99489.53;4960481;28;20261;-76
2021/01/17 09:55:01;;;;;;;171.87;46.90;;;2.60;99.90;;;2.76;100.00;99502.25;4966842;28;20218;-77
2021/01/17 09:57:46;;;;;;;176.67;47.20;;;2.60;99.90;;;2.91;100.00;99508.84;4962911;28;20257;-76
2021/01/17 10:00:32;;;;;;;181.97;46.90;;;2.70;99.90;;;3.08;100.00;99508.56;4965976;28;20732;-77
2021/01/17 10:03:17;;;;;;;184.60;49.87;;;2.80;99.90;;;3.30;100.00;99413.66;4969203;28;20273;-76
2021/01/17 10:06:03;;;;;;;186.83;49.03;;;2.90;99.90;;;3.39;100.00;99418.59;4967766;28;20202;-76
2021/01/17 10:08:48;;;;;;;176.20;49.20;;;3.00;99.90;;;3.55;100.00;99403.81;4967564;28;20226;-76
2021/01/17 10:11:34;;;;;;;207.87;52.47;;;3.10;99.90;;;3.71;100.00;99406.91;4965349;28;20614;-76
2021/01/17 10:14:22;;;;;;;190.33;50.10;;;3.20;99.90;;;3.73;100.00;99394.91;4968190;28;20261;-77
2021/01/17 10:17:08;;;;;;;192.53;53.33;;;3.30;99.90;;;3.78;100.00;99277.16;4950107;28;20349;-77
2021/01/17 10:19:53;;;;;;;171.90;50.40;;;3.50;99.90;;;3.77;100.00;99275.50;4966929;28;20265;-77
2021/01/17 10:22:39;;;;;;;190.80;53.60;;;3.60;99.90;;;3.93;100.00;99273.44;4969137;28;20566;-76
2021/01/17 10:25:24;;;;;;;175.93;52.00;;;3.70;99.90;;;3.91;100.00;99272.63;4967643;28;20290;-77
2021/01/17 10:28:11;;;;;;;182.53;52.17;;;3.80;99.90;;;3.56;100.00;99289.59;4966444;28;20699;-77
2021/01/17 10:30:59;;;;;;;153.47;49.50;;;3.90;99.90;;;3.36;100.00;99301.06;4964973;28;20333;-77
2021/01/17 10:33:48;;;;;;;131.40;43.53;;;4.10;99.90;;;3.44;100.00;99299.22;4966381;28;20591;-77
2021/01/17 10:36:34;;;;;;;119.70;40.73;;;4.20;99.90;;;3.78;100.00;99279.72;4964257;28;20294;-77
2021/01/17 10:39:20;;;;;;;134.63;41.73;;;4.30;99.90;;;4.02;100.00;99261.25;4965854;28;20217;-75
2021/01/17 10:42:11;;;;;;;127.43;42.90;;;4.40;99.90;;;4.24;100.00;99250.50;4965021;28;20257;-76
2021/01/17 10:45:02;;;;;;;132.97;42.60;;;4.50;99.90;;;4.18;100.00;99254.03;4954994;28;20302;-75
2021/01/17 10:47:57;;;;;;;117.30;39.47;;;4.60;99.90;;;4.56;100.00;99231.75;4965824;28;20246;-76
2021/01/17 10:50:53;;;;;;;142.80;45.80;;;4.80;99.90;;;5.89;100.00;99140.63;4959611;28;20305;-76
2021/01/17 10:53:48;;;;;;;147.77;46.03;;;4.90;99.90;;;6.87;100.00;99067.81;4965927;28;20325;-76
2021/01/17 10:56:34;;;;;;;98.37;40.27;;;5.20;99.90;;;8.05;100.00;98993.41;4964134;28;20279;-77
2021/01/17 10:59:27;;;;;;;109.37;41.97;;;5.50;99.90;;;7.92;100.00;98982.00;4965916;28;20257;-79
2021/01/17 11:02:22;;;;;;;97.23;35.67;;;6.00;99.90;;;7.33;100.00;99020.50;4969804;28;20220;-78
2021/01/17 11:05:08;;;;;;;70.23;26.73;;;6.60;99.90;;;6.25;100.00;99090.66;4962839;28;20535;-76
2021/01/17 11:07:54;;;;;;;55.53;22.20;;;7.20;99.90;;;7.09;100.00;99042.94;4965174;28;20217;-76
2021/01/17 11:10:40;;;;;;;45.60;16.37;;;;;;;8.60;100.00;98937.69;4966674;28;20277;-76
2021/01/17 11:13:25;;;;;;;38.27;18.23;;;;;;;9.75;100.00;98855.38;4966186;28;20664;-76
2021/01/17 11:16:11;;;;;;;34.03;13.10;;;8.50;99.90;;;9.82;100.00;98838.63;4966516;28;20269;-76
2021/01/17 11:18:56;;;;;;;30.30;10.83;;;9.10;99.90;;;10.92;100.00;98771.19;4966248;28;20272;-76
2021/01/17 11:21:42;;;;;;;23.13;10.40;;;9.70;99.90;;;10.65;100.00;98781.44;4967788;28;20261;-77
2021/01/17 11:24:37;;;;;;;26.27;9.07;;;10.40;99.90;;;8.69;100.00;98926.09;4964746;28;20695;-76
2021/01/17 11:27:25;;;;;;;20.40;7.33;;;11.20;99.90;;;7.41;100.00;99017.66;4964421;28;20272;-76
2021/01/17 11:30:15;;;;;;;21.50;7.80;;;11.80;99.90;;;6.59;100.00;99079.97;4966755;28;20280;-76
2021/01/17 11:33:09;;;;;;;20.23;8.57;;;12.20;99.90;;;6.31;100.00;99109.22;4966250;28;20204;-76
2021/01/17 11:36:01;;;;;;;17.97;6.63;;;12.40;99.90;;;6.08;100.00;99124.59;4963445;28;20699;-76
2021/01/17 11:38:50;;;;;;;18.43;7.23;;;12.50;99.90;;;5.97;100.00;99130.94;4967766;28;20245;-76
2021/01/17 11:41:39;;;;;;;24.93;8.00;;;12.50;99.90;;;5.92;100.00;99137.94;4965257;28;20728;-76